createdAt,value
2023-01-28T00:00:49.306Z,73.25
2023-01-28T00:03:16.036Z,73.02
2023-01-28T00:05:43.160Z,73.24
2023-01-28T00:08:10.330Z,72.63
2023-01-28T00:10:39.715Z,72.69
2023-01-28T00:13:14.680Z,72.91
2023-01-28T00:15:41.735Z,72.55
2023-01-28T00:18:08.259Z,72.48
2023-01-28T00:20:35.601Z,72.66
2023-01-28T00:23:02.154Z,72.66
2023-01-28T00:25:28.626Z,72.80
2023-01-28T00:27:55.685Z,72.16
2023-01-28T00:30:22.138Z,72.45
2023-01-28T00:32:48.599Z,72.08
2023-01-28T00:35:16.041Z,72.14
2023-01-28T00:37:46.019Z,72.12
2023-01-28T00:40:12.954Z,72.08
2023-01-28T00:42:39.417Z,72.16
2023-01-28T00:45:06.324Z,72.18
2023-01-28T00:47:32.782Z,71.93
2023-01-28T00:49:59.248Z,72.41
2023-01-28T00:52:26.077Z,72.50
2023-01-28T00:54:52.644Z,72.41
2023-01-28T00:57:21.589Z,72.45
2023-01-28T00:59:48.034Z,72.47
2023-01-28T01:02:14.586Z,72.61
2023-01-28T01:04:41.327Z,72.51
2023-01-28T01:07:07.996Z,72.43
2023-01-28T01:09:34.504Z,72.71
2023-01-28T01:12:01.349Z,72.50
2023-01-28T01:14:27.867Z,72.03
2023-01-28T01:16:54.424Z,72.29
2023-01-28T01:19:21.491Z,72.45
2023-01-28T01:21:50.796Z,72.01
2023-01-28T01:24:17.657Z,71.59
2023-01-28T01:26:44.307Z,71.64
2023-01-28T01:29:10.874Z,71.94
2023-01-28T01:31:37.859Z,71.90
2023-01-28T01:34:04.749Z,72.19
2023-01-28T01:36:31.914Z,71.73
2023-01-28T01:38:58.479Z,71.95
2023-01-28T01:41:26.969Z,71.77
2023-01-28T01:43:59.948Z,71.24
2023-01-28T01:46:43.894Z,71.43
2023-01-28T01:49:19.433Z,71.13
2023-01-28T01:51:51.311Z,71.32
2023-01-28T01:54:19.680Z,71.39
2023-01-28T01:56:49.544Z,72.00
2023-01-28T01:59:22.395Z,71.18
2023-01-28T02:01:49.172Z,71.25
2023-01-28T02:04:18.396Z,70.96
2023-01-28T02:06:45.806Z,70.86
2023-01-28T02:09:42.156Z,70.78
2023-01-28T02:12:16.185Z,71.10
2023-01-28T02:14:48.492Z,70.86
2023-01-28T02:17:16.012Z,70.36
2023-01-28T02:19:58.098Z,71.39
2023-01-28T02:22:56.722Z,70.66
2023-01-28T02:25:29.374Z,70.71
2023-01-28T02:28:01.813Z,70.49
2023-01-28T02:30:35.249Z,70.41
2023-01-28T02:33:08.692Z,70.47
2023-01-28T02:35:46.054Z,70.62
2023-01-28T02:38:19.571Z,70.41
2023-01-28T02:41:05.804Z,70.34
2023-01-28T02:43:37.393Z,70.36
2023-01-28T02:46:37.978Z,70.21
2023-01-28T02:49:09.913Z,70.06
2023-01-28T02:52:52.545Z,70.20
2023-01-28T02:55:40.604Z,69.93
2023-01-28T02:58:32.749Z,69.79
2023-01-28T03:01:11.493Z,69.37
2023-01-28T03:03:40.874Z,69.14
2023-01-28T03:06:11.777Z,69.26
2023-01-28T03:09:11.946Z,68.82
2023-01-28T03:12:03.482Z,68.20
2023-01-28T03:14:50.903Z,68.59
2023-01-28T03:17:43.652Z,68.69
2023-01-28T03:20:29.563Z,68.60
2023-01-28T03:23:18.615Z,68.48
2023-01-28T03:26:10.171Z,68.80
2023-01-28T03:28:58.472Z,68.25
2023-01-28T03:31:44.920Z,67.89
2023-01-28T03:34:31.094Z,68.58
2023-01-28T03:36:58.175Z,68.21
2023-01-28T03:39:30.146Z,68.29
2023-01-28T03:42:12.632Z,68.45
2023-01-28T03:44:55.140Z,68.10
2023-01-28T03:47:27.677Z,68.28
2023-01-28T03:49:59.728Z,68.26
2023-01-28T03:52:30.232Z,68.71
2023-01-28T03:54:56.968Z,68.46
2023-01-28T03:57:26.450Z,67.84
2023-01-28T03:59:54.015Z,68.39
2023-01-28T04:02:22.129Z,68.46
2023-01-28T04:04:50.265Z,68.33
2023-01-28T04:07:17.343Z,68.03
2023-01-28T04:09:44.484Z,67.93
2023-01-28T04:12:11.460Z,68.07
2023-01-28T04:14:40.159Z,68.02
2023-01-28T04:17:09.677Z,68.27
2023-01-28T04:19:38.006Z,67.80
2023-01-28T04:22:10.460Z,67.75
2023-01-28T04:24:37.030Z,67.94
2023-01-28T04:27:03.675Z,67.08
2023-01-28T04:29:30.154Z,67.15
2023-01-28T04:31:57.033Z,66.92
2023-01-28T04:34:23.515Z,66.98
2023-01-28T04:36:50.121Z,66.93
2023-01-28T04:39:16.645Z,67.14
2023-01-28T04:41:43.111Z,66.40
2023-01-28T04:44:09.736Z,65.63
2023-01-28T04:46:39.157Z,65.38
2023-01-28T04:49:06.022Z,65.33
2023-01-28T04:51:32.560Z,65.19
2023-01-28T04:53:59.095Z,65.74
2023-01-28T04:56:25.645Z,65.31
2023-01-28T04:58:52.275Z,65.44
2023-01-28T05:01:18.870Z,65.78
2023-01-28T05:03:45.377Z,65.74
2023-01-28T05:06:11.843Z,65.20
2023-01-28T05:08:38.531Z,65.71
2023-01-28T05:11:05.237Z,65.17
2023-01-28T05:13:31.760Z,65.29
2023-01-28T05:15:58.685Z,64.62
2023-01-28T05:18:25.208Z,64.96
2023-01-28T05:20:51.688Z,64.90
2023-01-28T05:23:18.175Z,65.00
2023-01-28T05:25:45.391Z,65.18
2023-01-28T05:28:11.911Z,65.79
2023-01-28T05:30:40.333Z,65.74
2023-01-28T05:33:06.866Z,65.12
2023-01-28T05:35:34.102Z,64.82
2023-01-28T05:38:00.632Z,65.04
2023-01-28T05:40:27.083Z,64.82
2023-01-28T05:42:53.603Z,65.22
2023-01-28T05:45:20.341Z,65.35
2023-01-28T05:47:46.917Z,65.43
2023-01-28T05:50:15.012Z,65.52
2023-01-28T05:52:41.780Z,65.21
2023-01-28T05:55:09.128Z,65.19
2023-01-28T05:57:35.660Z,65.10
2023-01-28T06:00:02.421Z,64.33
2023-01-28T06:02:28.958Z,64.66
2023-01-28T06:04:55.460Z,64.82
2023-01-28T06:07:22.031Z,65.57
2023-01-28T06:09:48.628Z,65.48
2023-01-28T06:12:15.203Z,65.42
2023-01-28T06:14:42.472Z,65.56
2023-01-28T06:17:09.040Z,65.29
2023-01-28T06:19:35.986Z,64.72
2023-01-28T06:22:02.571Z,65.02
2023-01-28T06:24:29.123Z,64.97
2023-01-28T06:26:56.160Z,64.96
2023-01-28T06:29:23.530Z,64.83
2023-01-28T06:31:51.246Z,65.04
2023-01-28T06:34:18.047Z,64.38
2023-01-28T06:36:45.062Z,64.57
2023-01-28T06:39:11.930Z,64.55
2023-01-28T06:41:38.407Z,64.41
2023-01-28T06:44:05.150Z,63.81
2023-01-28T06:46:31.736Z,63.93
2023-01-28T06:48:58.272Z,64.59
2023-01-28T06:51:24.815Z,64.22
2023-01-28T06:53:51.349Z,64.08
2023-01-28T06:56:18.122Z,64.08
2023-01-28T06:58:44.652Z,64.36
2023-01-28T07:01:11.114Z,64.15
2023-01-28T07:03:37.604Z,63.93
2023-01-28T07:06:04.737Z,64.31
2023-01-28T07:08:31.432Z,64.50
2023-01-28T07:10:58.233Z,64.11
2023-01-28T07:13:24.963Z,64.70
2023-01-28T07:15:51.730Z,64.68
2023-01-28T07:18:18.917Z,65.12
2023-01-28T07:20:45.903Z,64.93
2023-01-28T07:23:12.857Z,65.05
2023-01-28T07:25:39.386Z,64.57
2023-01-28T07:28:05.876Z,64.49
2023-01-28T07:30:32.617Z,64.53
2023-01-28T07:33:00.779Z,65.04
2023-01-28T07:35:27.439Z,65.30
2023-01-28T07:37:55.368Z,65.36
2023-01-28T07:40:22.428Z,65.16
2023-01-28T07:42:49.074Z,65.18
2023-01-28T07:45:16.472Z,64.62
2023-01-28T07:47:42.998Z,64.31
2023-01-28T07:50:11.209Z,64.23
2023-01-28T07:52:44.337Z,64.30
2023-01-28T07:55:15.571Z,64.64
2023-01-28T07:58:11.963Z,64.06
2023-01-28T08:00:39.202Z,64.70
2023-01-28T08:03:08.373Z,64.83
2023-01-28T08:05:41.551Z,64.58
2023-01-28T08:08:09.921Z,64.69
2023-01-28T08:10:37.145Z,64.17
2023-01-28T08:13:04.457Z,65.20
2023-01-28T08:15:34.081Z,64.11
2023-01-28T08:18:01.633Z,64.97
2023-01-28T08:20:29.493Z,64.66
2023-01-28T08:23:08.831Z,65.16
2023-01-28T08:25:36.111Z,64.16
2023-01-28T08:28:03.575Z,64.06
2023-01-28T08:30:30.208Z,64.11
2023-01-28T08:33:00.537Z,64.77
2023-01-28T08:35:28.787Z,64.96
2023-01-28T08:37:55.285Z,64.47
2023-01-28T08:40:22.530Z,64.38
2023-01-28T08:42:53.479Z,64.37
2023-01-28T08:45:27.637Z,64.35
2023-01-28T08:47:56.111Z,63.45
2023-01-28T08:50:24.794Z,63.32
2023-01-28T08:52:59.481Z,63.57
2023-01-28T08:55:27.432Z,63.60
2023-01-28T08:57:54.161Z,64.06
2023-01-28T09:00:21.932Z,64.35
2023-01-28T09:02:52.462Z,63.26
2023-01-28T09:05:20.129Z,63.76
2023-01-28T09:07:46.909Z,63.68
2023-01-28T09:10:14.223Z,62.66
2023-01-28T09:12:40.862Z,62.85
2023-01-28T09:15:08.431Z,62.51
2023-01-28T09:17:34.994Z,62.71
2023-01-28T09:20:01.631Z,63.71
2023-01-28T09:22:28.136Z,62.48
2023-01-28T09:24:54.628Z,62.70
2023-01-28T09:27:21.268Z,62.38
2023-01-28T09:29:47.825Z,61.98
2023-01-28T09:32:14.270Z,62.07
2023-01-28T09:34:40.972Z,62.19
2023-01-28T09:37:07.543Z,62.64
2023-01-28T09:39:34.461Z,62.10
2023-01-28T09:42:13.180Z,62.23
2023-01-28T09:45:06.085Z,61.96
2023-01-28T09:47:37.853Z,62.60
2023-01-28T09:50:27.429Z,60.80
2023-01-28T09:52:57.511Z,60.27
2023-01-28T09:55:46.242Z,60.61
2023-01-28T09:58:16.079Z,60.64
2023-01-28T10:01:05.237Z,60.91
2023-01-28T10:03:38.194Z,60.61
2023-01-28T10:06:26.765Z,60.34
2023-01-28T10:09:19.511Z,60.56
2023-01-28T10:12:19.548Z,60.16
2023-01-28T10:14:52.205Z,60.75
2023-01-28T10:17:42.680Z,60.78
2023-01-28T10:20:12.313Z,61.08
2023-01-28T10:22:45.535Z,61.31
2023-01-28T10:25:20.662Z,60.59
2023-01-28T10:27:49.275Z,60.88
2023-01-28T10:30:22.481Z,60.56
2023-01-28T10:33:05.815Z,60.98
2023-01-28T10:35:41.817Z,61.00
2023-01-28T10:38:13.492Z,61.09
2023-01-28T10:40:42.657Z,60.92
2023-01-28T10:43:09.703Z,60.73
2023-01-28T10:45:45.713Z,60.77
2023-01-28T10:48:21.317Z,60.85
2023-01-28T10:51:05.340Z,61.13
2023-01-28T10:53:43.677Z,61.08
2023-01-28T10:56:18.001Z,60.88
2023-01-28T10:59:04.429Z,61.40
2023-01-28T11:01:47.882Z,61.90
2023-01-28T11:04:30.270Z,63.20
2023-01-28T11:07:04.016Z,63.29
2023-01-28T11:09:35.952Z,63.00
2023-01-28T11:12:21.889Z,62.93
2023-01-28T11:14:52.380Z,62.16
2023-01-28T11:17:21.631Z,62.23
2023-01-28T11:19:48.718Z,62.27
2023-01-28T11:22:24.711Z,62.68
2023-01-28T11:24:51.393Z,62.90
2023-01-28T11:27:23.876Z,62.80
2023-01-28T11:29:57.263Z,62.27
2023-01-28T11:32:26.672Z,61.98
2023-01-28T11:34:57.365Z,62.35
2023-01-28T11:37:26.262Z,62.63
2023-01-28T11:40:21.567Z,62.18
2023-01-28T11:42:50.759Z,62.16
2023-01-28T11:45:22.694Z,62.03
2023-01-28T11:48:07.063Z,61.87
2023-01-28T11:50:59.993Z,61.77
2023-01-28T11:53:50.166Z,61.92
2023-01-28T11:56:33.756Z,62.08
2023-01-28T11:59:19.974Z,61.91
2023-01-28T12:02:01.655Z,62.31
2023-01-28T12:05:05.454Z,62.08
2023-01-28T12:07:34.670Z,61.35
2023-01-28T12:10:09.832Z,61.49
2023-01-28T12:12:51.672Z,61.36
2023-01-28T12:15:40.314Z,61.28
2023-01-28T12:18:31.968Z,61.98
2023-01-28T12:21:01.539Z,61.37
2023-01-28T12:23:51.022Z,61.13
2023-01-28T12:26:46.802Z,61.32
2023-01-28T12:29:41.444Z,60.96
2023-01-28T12:32:39.575Z,60.55
2023-01-28T12:35:07.875Z,60.51
2023-01-28T12:37:42.625Z,60.75
2023-01-28T12:40:33.699Z,60.66
2023-01-28T12:43:43.346Z,60.41
2023-01-28T12:46:17.893Z,60.54
2023-01-28T12:48:53.061Z,60.44
2023-01-28T12:51:38.456Z,60.07
2023-01-28T12:54:38.610Z,60.52
2023-01-28T12:57:05.251Z,60.04
2023-01-28T12:59:39.857Z,60.08
2023-01-28T13:02:22.005Z,59.84
2023-01-28T13:05:02.428Z,60.20
2023-01-28T13:07:38.013Z,60.04
2023-01-28T13:10:12.806Z,59.81
2023-01-28T13:12:41.502Z,59.82
2023-01-28T13:15:17.187Z,60.18
2023-01-28T13:18:00.318Z,60.52
2023-01-28T13:20:39.399Z,59.72
2023-01-28T13:23:26.041Z,59.21
2023-01-28T13:25:55.833Z,60.13
2023-01-28T13:28:31.580Z,59.93
2023-01-28T13:31:02.459Z,59.81
2023-01-28T13:33:33.056Z,60.13
2023-01-28T13:36:06.626Z,60.04
2023-01-28T13:38:34.137Z,59.63
2023-01-28T13:41:01.458Z,60.11
2023-01-28T13:43:34.119Z,59.60
2023-01-28T13:46:04.656Z,59.30
2023-01-28T13:48:38.741Z,59.63
2023-01-28T13:51:12.883Z,60.22
2023-01-28T13:53:49.296Z,59.93
2023-01-28T13:56:25.718Z,60.25
2023-01-28T13:59:23.916Z,59.80
2023-01-28T14:02:12.018Z,59.62
2023-01-28T14:04:45.293Z,59.14
2023-01-28T14:07:40.880Z,59.56
2023-01-28T14:10:38.701Z,59.68
2023-01-28T14:13:20.373Z,59.31
2023-01-28T14:15:50.726Z,59.49
2023-01-28T14:18:36.795Z,59.35
2023-01-28T14:21:11.213Z,59.76
2023-01-28T14:23:47.154Z,59.31
2023-01-28T14:26:44.580Z,59.53
2023-01-28T14:30:05.233Z,59.91
2023-01-28T14:32:33.446Z,60.01
2023-01-28T14:35:07.343Z,59.99
2023-01-28T14:37:34.017Z,60.19
2023-01-28T14:40:04.336Z,60.47
2023-01-28T14:42:35.932Z,60.48
2023-01-28T14:45:11.563Z,60.57
2023-01-28T14:47:56.258Z,60.62
2023-01-28T14:51:03.076Z,60.54
2023-01-28T14:53:29.557Z,60.53
2023-01-28T14:55:59.148Z,60.47
2023-01-28T14:58:37.382Z,59.87
2023-01-28T15:01:03.999Z,59.98
2023-01-28T15:03:32.086Z,60.00
2023-01-28T15:06:05.868Z,60.56
2023-01-28T15:08:32.542Z,60.21
2023-01-28T15:11:01.777Z,60.17
2023-01-28T15:13:30.839Z,60.34
2023-01-28T15:16:00.925Z,60.32
2023-01-28T15:18:34.301Z,60.32
2023-01-28T15:21:02.098Z,60.32
2023-01-28T15:23:34.545Z,60.26
2023-01-28T15:26:06.534Z,60.34
2023-01-28T15:28:37.064Z,60.80
2023-01-28T15:31:04.203Z,60.79
2023-01-28T15:33:30.900Z,61.32
2023-01-28T15:35:58.929Z,61.27
2023-01-28T15:38:28.516Z,61.44
2023-01-28T15:40:59.487Z,62.01
2023-01-28T15:43:31.983Z,62.62
2023-01-28T15:46:00.147Z,62.69
2023-01-28T15:48:29.375Z,62.50
2023-01-28T15:51:04.942Z,62.87
2023-01-28T15:53:41.984Z,63.08
2023-01-28T15:56:13.505Z,63.10
2023-01-28T15:58:41.812Z,63.52
2023-01-28T16:01:08.496Z,63.58
2023-01-28T16:03:37.175Z,63.46
2023-01-28T16:06:09.736Z,63.75
2023-01-28T16:08:54.333Z,64.20
2023-01-28T16:11:28.663Z,64.08
2023-01-28T16:13:56.146Z,64.12
2023-01-28T16:16:32.240Z,64.33
2023-01-28T16:18:59.513Z,64.74
2023-01-28T16:21:33.801Z,64.14
2023-01-28T16:24:07.693Z,64.57
2023-01-28T16:26:36.107Z,64.75
2023-01-28T16:29:17.156Z,64.48
2023-01-28T16:31:43.914Z,64.65
2023-01-28T16:34:10.841Z,64.41
2023-01-28T16:36:37.608Z,64.72
2023-01-28T16:39:04.407Z,64.35
2023-01-28T16:41:35.212Z,64.37
2023-01-28T16:44:05.775Z,64.78
2023-01-28T16:46:36.056Z,64.43
2023-01-28T16:49:02.739Z,64.88
2023-01-28T16:51:29.653Z,65.31
2023-01-28T16:53:57.326Z,65.40
2023-01-28T16:59:16.328Z,65.61
2023-01-28T17:01:44.431Z,65.60
2023-01-28T17:04:12.796Z,65.63
2023-01-28T17:06:43.001Z,65.57
2023-01-28T17:09:11.842Z,65.88
2023-01-28T17:11:40.730Z,65.37
2023-01-28T17:14:07.976Z,65.35
2023-01-28T17:16:34.894Z,64.93
2023-01-28T17:19:01.797Z,65.28
2023-01-28T17:21:28.726Z,65.25
2023-01-28T17:23:56.535Z,65.27
2023-01-28T17:26:24.168Z,65.60
2023-01-28T17:28:54.201Z,65.80
2023-01-28T17:31:21.833Z,65.85
2023-01-28T17:33:54.337Z,65.73
2023-01-28T17:36:21.308Z,65.78
2023-01-28T17:38:48.682Z,65.75
2023-01-28T17:41:17.495Z,66.15
2023-01-28T17:43:49.729Z,65.67
2023-01-28T17:46:17.350Z,66.52
2023-01-28T17:48:45.859Z,66.39
2023-01-28T17:51:13.911Z,66.88
2023-01-28T17:53:45.919Z,67.42
2023-01-28T17:56:29.127Z,67.14
2023-01-28T17:59:02.793Z,67.53
2023-01-28T18:01:30.259Z,67.43
2023-01-28T18:03:58.824Z,67.78
2023-01-28T18:06:25.799Z,67.61
2023-01-28T18:08:52.406Z,67.29
2023-01-28T18:11:19.964Z,67.73
2023-01-28T18:13:47.139Z,67.89
2023-01-28T18:16:17.326Z,68.20
2023-01-28T18:18:45.188Z,68.16
2023-01-28T18:21:51.803Z,68.01
2023-01-28T18:24:19.828Z,67.64
2023-01-28T18:26:46.577Z,67.52
2023-01-28T18:29:17.059Z,68.08
2023-01-28T18:31:44.854Z,68.26
2023-01-28T18:34:11.721Z,68.34
2023-01-28T18:36:38.615Z,68.22
2023-01-28T18:39:12.644Z,68.27
2023-01-28T18:41:39.649Z,68.72
2023-01-28T18:44:08.217Z,68.78
2023-01-28T18:46:35.304Z,68.70
2023-01-28T18:49:04.185Z,68.94
2023-01-28T18:51:31.145Z,68.80
2023-01-28T18:54:04.006Z,68.61
2023-01-28T18:56:31.972Z,69.09
2023-01-28T18:59:00.930Z,68.97
2023-01-28T19:01:28.449Z,68.97
2023-01-28T19:03:57.117Z,69.46
2023-01-28T19:06:24.831Z,69.40
2023-01-28T19:08:57.964Z,69.56
2023-01-28T19:11:26.644Z,69.99
2023-01-28T19:13:53.883Z,69.63
2023-01-28T19:16:21.870Z,69.93
2023-01-28T19:18:57.519Z,70.03
2023-01-28T19:21:25.658Z,70.02
2023-01-28T19:24:01.823Z,69.92
2023-01-28T19:26:30.784Z,70.02
2023-01-28T19:28:58.064Z,70.16
2023-01-28T19:31:26.360Z,70.44
2023-01-28T19:33:56.826Z,70.46
2023-01-28T19:36:26.192Z,70.40
2023-01-28T19:38:56.584Z,70.56
2023-01-28T19:41:23.399Z,70.51
2023-01-28T19:43:50.190Z,70.51
2023-01-28T19:46:18.167Z,70.92
2023-01-28T19:48:45.554Z,70.97
2023-01-28T19:51:13.595Z,71.21
2023-01-28T19:53:41.892Z,71.39
2023-01-28T19:56:14.632Z,71.24
2023-01-28T19:58:43.668Z,71.61
2023-01-28T20:01:20.113Z,71.80
2023-01-28T20:03:51.282Z,71.53
2023-01-28T20:06:18.026Z,71.69
2023-01-28T20:08:45.747Z,71.98
2023-01-28T20:11:15.011Z,71.86
2023-01-28T20:13:44.267Z,72.10
2023-01-28T20:16:25.642Z,72.00
2023-01-28T20:18:58.209Z,72.25
2023-01-28T20:21:25.974Z,72.25
2023-01-28T20:23:54.854Z,72.37
2023-01-28T20:26:25.130Z,72.18
2023-01-28T20:28:52.135Z,72.44
2023-01-28T20:31:20.256Z,72.68
2023-01-28T20:33:47.326Z,72.75
2023-01-28T20:36:14.823Z,73.05
2023-01-28T20:38:44.080Z,72.73
2023-01-28T20:41:13.146Z,72.58
2023-01-28T20:43:41.597Z,72.85
2023-01-28T20:46:12.101Z,72.94
2023-01-28T20:48:38.850Z,73.27
2023-01-28T20:51:14.124Z,73.23
2023-01-28T20:53:41.844Z,73.19
2023-01-28T20:56:10.326Z,73.25
2023-01-28T20:58:37.117Z,73.65
2023-01-28T21:01:04.581Z,73.48
2023-01-28T21:03:31.589Z,73.55
2023-01-28T21:05:58.323Z,73.65
2023-01-28T21:08:24.939Z,73.41
2023-01-28T21:10:51.466Z,73.52
2023-01-28T21:13:18.294Z,73.49
2023-01-28T21:15:55.956Z,73.81
2023-01-28T21:18:23.118Z,73.62
2023-01-28T21:20:50.334Z,73.54
2023-01-28T21:23:17.121Z,73.64
2023-01-28T21:25:47.063Z,73.57
2023-01-28T21:28:14.254Z,73.84
2023-01-28T21:30:40.916Z,73.86
2023-01-28T21:33:08.074Z,74.01
2023-01-28T21:35:39.669Z,73.92
2023-01-28T21:38:06.641Z,74.35
2023-01-28T21:40:34.645Z,73.96
2023-01-28T21:43:01.802Z,74.17
2023-01-28T21:45:28.877Z,74.10
2023-01-28T21:47:55.780Z,74.22
2023-01-28T21:50:23.077Z,73.89
2023-01-28T21:52:50.570Z,74.22
2023-01-28T21:55:17.961Z,74.18
2023-01-28T21:57:46.428Z,73.95
2023-01-28T22:00:13.387Z,74.14
2023-01-28T22:02:40.766Z,74.48
2023-01-28T22:05:07.753Z,74.11
2023-01-28T22:07:36.704Z,74.43
2023-01-28T22:10:03.487Z,74.40
2023-01-28T22:12:30.359Z,74.59
2023-01-28T22:14:57.005Z,74.57
2023-01-28T22:17:25.930Z,74.52
2023-01-28T22:19:57.044Z,74.78
2023-01-28T22:22:24.388Z,74.85
2023-01-28T22:24:51.601Z,74.31
2023-01-28T22:27:18.261Z,74.44
2023-01-28T22:29:44.867Z,74.70
2023-01-28T22:32:11.441Z,74.42
2023-01-28T22:34:38.074Z,74.43
2023-01-28T22:37:07.451Z,74.07
2023-01-28T22:40:34.137Z,74.21
2023-01-28T22:43:00.973Z,74.47
2023-01-28T22:45:27.709Z,74.43
2023-01-28T22:47:54.421Z,74.27
2023-01-28T22:50:21.818Z,74.78
2023-01-28T22:52:48.873Z,74.63
2023-01-28T22:55:15.808Z,74.66
2023-01-28T22:57:42.394Z,74.68
2023-01-28T23:00:12.412Z,74.89
2023-01-28T23:02:39.132Z,74.55
2023-01-28T23:05:06.693Z,74.66
2023-01-28T23:07:33.313Z,74.88
2023-01-28T23:09:59.827Z,74.98
2023-01-28T23:12:26.423Z,75.00
2023-01-28T23:15:11.359Z,75.36
2023-01-28T23:17:56.620Z,74.81
2023-01-28T23:20:41.584Z,75.30
2023-01-28T23:23:34.687Z,75.45
2023-01-28T23:26:01.254Z,75.27
2023-01-28T23:28:28.041Z,74.91
2023-01-28T23:30:54.850Z,75.63
2023-01-28T23:33:21.493Z,75.79
2023-01-28T23:35:48.017Z,75.74
2023-01-28T23:38:15.153Z,75.66
2023-01-28T23:40:41.797Z,75.37
2023-01-28T23:43:08.318Z,75.53
2023-01-28T23:45:34.820Z,75.29
2023-01-28T23:48:01.540Z,75.41
2023-01-28T23:50:28.066Z,75.89
2023-01-28T23:52:54.527Z,75.71
2023-01-28T23:55:21.063Z,75.90
2023-01-28T23:57:48.058Z,75.65
